Promise City, IA (52583)

7:08 AM CST on February 27, 2015 (GMT -0600)
IADOT Centerville (IA 2) | Change Station
CLOSE
Current Station
Personal Weather Station
Location: Plano, IA
Elevation: 967 ft
Nearby Weather Stations

Elev 967 ft 40.74 °N, 93.00 °W | Updated 48 minutes ago

Clear
Clear
-8 °F
Feels Like -8 °F
N
1
Wind Variable Wind from SW
Gusts 2.0 mph

Today
High -- | Low -- °F
--% Chance of Precip.
Yesterday
High -- | Low -- °F
Precip. -- in
6:49 AM 6:01 PM
Waxing Gibbous, 68% visible
Pressure 30.60 in
Visibility 10.0 miles
Clouds Clear
Windchill -8 °F
Dew Point -11 °F
Humidity 85%
Rainfall -999.00 in
Snow Depth Not available.
UV 0 out of 12
Pollen .50 out of 12
Air Quality Not available.
Flu Activity Not available.
METAR KTVK 271255Z AUTO 29005KT 10SM CLR M22/M24 A3060 RMK AO2

More Conditions Fewer Conditions

Pressure 30.60 in
Visibility 10.0 miles
Clouds Clear
Windchill -8 °F
Dew Point -11 °F
Humidity 85%
Rainfall -999.00 in
Snow Depth Not available.
UV 0 out of 12
Pollen .50 out of 12
Air Quality Not available.
Flu Activity Not available.
METAR KTVK 271255Z AUTO 29005KT 10SM CLR M22/M24 A3060 RMK AO2

More Conditions Fewer Conditions

10-Day Weather Forecast

Almanac

Astronomy

Feb. 27, 2015 Rise Set
Actual Time
Civil Twilight
Nautical Twilight
Astronomical Twilight
Moon
Length of Visible Light
Length of Day
Tomorrow will be .
, % of the Moon is Illuminated

Today's Extremes

State Highs State Lows

Community

WunderPhotos

Upload Photos

1,800,666 photos uploaded!

WunderBlogs® & News

Nearby

Air Quality

  Air Quality AQ Index Pollutant
Not available.

Snow Depth

Station Depth Elevation

Earthquake Activity

City Distance Mag. Time & Date
Minimum magnitude displayed is 2.5.

Coastal Water Temperatures

Place Temperature

Nearby Weather Stations